sensor_id;sensor_type;location;lat;lon;timestamp;temperature;humidity
8896;DHT22;4484;48.928;10.066;2023-06-26T00:00:08;15.30;92.10
8896;DHT22;4484;48.928;10.066;2023-06-26T00:02:35;15.30;92.10
8896;DHT22;4484;48.928;10.066;2023-06-26T00:05:02;15.30;92.10
8896;DHT22;4484;48.928;10.066;2023-06-26T00:07:30;15.30;92.30
8896;DHT22;4484;48.928;10.066;2023-06-26T00:09:57;15.20;92.70
8896;DHT22;4484;48.928;10.066;2023-06-26T00:12:26;15.20;92.50
8896;DHT22;4484;48.928;10.066;2023-06-26T00:14:53;15.20;92.70
8896;DHT22;4484;48.928;10.066;2023-06-26T00:17:21;15.20;92.90
8896;DHT22;4484;48.928;10.066;2023-06-26T00:19:48;15.20;93.00
8896;DHT22;4484;48.928;10.066;2023-06-26T00:22:15;15.10;93.30
8896;DHT22;4484;48.928;10.066;2023-06-26T00:24:42;15.10;93.50
8896;DHT22;4484;48.928;10.066;2023-06-26T00:27:11;15.00;93.50
8896;DHT22;4484;48.928;10.066;2023-06-26T00:29:38;15.00;93.60
8896;DHT22;4484;48.928;10.066;2023-06-26T00:32:06;15.00;93.90
8896;DHT22;4484;48.928;10.066;2023-06-26T00:34:33;15.00;94.00
8896;DHT22;4484;48.928;10.066;2023-06-26T00:37:00;15.00;94.30
8896;DHT22;4484;48.928;10.066;2023-06-26T00:39:27;14.90;94.60
8896;DHT22;4484;48.928;10.066;2023-06-26T00:41:54;14.90;94.70
8896;DHT22;4484;48.928;10.066;2023-06-26T00:44:21;14.90;95.20
8896;DHT22;4484;48.928;10.066;2023-06-26T00:46:48;14.90;95.70
8896;DHT22;4484;48.928;10.066;2023-06-26T00:49:16;14.80;95.70
8896;DHT22;4484;48.928;10.066;2023-06-26T00:51:43;14.80;95.80
8896;DHT22;4484;48.928;10.066;2023-06-26T00:54:11;14.80;96.20
8896;DHT22;4484;48.928;10.066;2023-06-26T00:56:38;14.80;96.40
8896;DHT22;4484;48.928;10.066;2023-06-26T00:59:06;14.80;96.60
8896;DHT22;4484;48.928;10.066;2023-06-26T01:01:33;14.70;96.70
8896;DHT22;4484;48.928;10.066;2023-06-26T01:04:00;14.80;97.00
8896;DHT22;4484;48.928;10.066;2023-06-26T01:06:28;14.70;97.10
8896;DHT22;4484;48.928;10.066;2023-06-26T01:08:59;14.70;97.40
8896;DHT22;4484;48.928;10.066;2023-06-26T01:11:26;14.70;97.50
8896;DHT22;4484;48.928;10.066;2023-06-26T01:13:54;14.70;97.60
8896;DHT22;4484;48.928;10.066;2023-06-26T01:16:23;14.60;97.70
8896;DHT22;4484;48.928;10.066;2023-06-26T01:18:51;14.60;98.10
8896;DHT22;4484;48.928;10.066;2023-06-26T01:21:18;14.60;98.20
8896;DHT22;4484;48.928;10.066;2023-06-26T01:24:16;14.60;98.50
8896;DHT22;4484;48.928;10.066;2023-06-26T01:26:50;14.60;99.00
8896;DHT22;4484;48.928;10.066;2023-06-26T01:29:18;14.50;99.40
8896;DHT22;4484;48.928;10.066;2023-06-26T01:31:47;14.50;99.50
8896;DHT22;4484;48.928;10.066;2023-06-26T01:34:17;14.50;99.80
8896;DHT22;4484;48.928;10.066;2023-06-26T01:36:45;14.40;99.90
8896;DHT22;4484;48.928;10.066;2023-06-26T01:39:18;14.40;99.90
8896;DHT22;4484;48.928;10.066;2023-06-26T01:41:45;14.40;99.90
8896;DHT22;4484;48.928;10.066;2023-06-26T01:44:24;14.40;99.90
8896;DHT22;4484;48.928;10.066;2023-06-26T01:46:59;14.40;99.90
8896;DHT22;4484;48.928;10.066;2023-06-26T01:52:12;14.40;99.90
8896;DHT22;4484;48.928;10.066;2023-06-26T01:57:30;14.40;99.90
8896;DHT22;4484;48.928;10.066;2023-06-26T01:59:59;14.40;99.90
8896;DHT22;4484;48.928;10.066;2023-06-26T02:02:28;14.40;99.90
8896;DHT22;4484;48.928;10.066;2023-06-26T02:04:55;14.40;99.90
8896;DHT22;4484;48.928;10.066;2023-06-26T02:07:23;14.40;99.90
8896;DHT22;4484;48.928;10.066;2023-06-26T02:09:50;14.40;99.90
8896;DHT22;4484;48.928;10.066;2023-06-26T02:12:17;14.40;99.90
8896;DHT22;4484;48.928;10.066;2023-06-26T02:14:44;14.40;99.90
8896;DHT22;4484;48.928;10.066;2023-06-26T02:17:10;14.40;99.90
8896;DHT22;4484;48.928;10.066;2023-06-26T02:19:37;14.40;99.90
8896;DHT22;4484;48.928;10.066;2023-06-26T02:22:15;14.40;99.90
8896;DHT22;4484;48.928;10.066;2023-06-26T02:24:43;14.40;99.90
8896;DHT22;4484;48.928;10.066;2023-06-26T02:27:10;14.30;99.90
8896;DHT22;4484;48.928;10.066;2023-06-26T02:29:38;14.30;99.90
8896;DHT22;4484;48.928;10.066;2023-06-26T02:32:07;14.30;99.90
8896;DHT22;4484;48.928;10.066;2023-06-26T02:34:35;14.20;99.90
8896;DHT22;4484;48.928;10.066;2023-06-26T02:37:02;14.20;99.90
8896;DHT22;4484;48.928;10.066;2023-06-26T02:39:29;14.20;99.90
8896;DHT22;4484;48.928;10.066;2023-06-26T02:41:56;14.20;99.90
8896;DHT22;4484;48.928;10.066;2023-06-26T02:44:24;14.10;99.90
8896;DHT22;4484;48.928;10.066;2023-06-26T02:46:51;14.10;99.90
8896;DHT22;4484;48.928;10.066;2023-06-26T02:49:18;14.10;99.90
8896;DHT22;4484;48.928;10.066;2023-06-26T02:51:49;14.10;99.90
8896;DHT22;4484;48.928;10.066;2023-06-26T02:54:23;14.10;99.90
8896;DHT22;4484;48.928;10.066;2023-06-26T02:56:53;14.00;99.90
8896;DHT22;4484;48.928;10.066;2023-06-26T02:59:25;14.10;99.90
8896;DHT22;4484;48.928;10.066;2023-06-26T03:01:54;14.10;99.90
8896;DHT22;4484;48.928;10.066;2023-06-26T03:04:27;14.20;99.90
8896;DHT22;4484;48.928;10.066;2023-06-26T03:06:54;14.20;99.90
8896;DHT22;4484;48.928;10.066;2023-06-26T03:09:21;14.10;99.90
8896;DHT22;4484;48.928;10.066;2023-06-26T03:11:49;14.10;99.90
8896;DHT22;4484;48.928;10.066;2023-06-26T03:14:16;14.10;99.90
8896;DHT22;4484;48.928;10.066;2023-06-26T03:16:43;14.10;99.90
8896;DHT22;4484;48.928;10.066;2023-06-26T03:19:10;14.20;99.90
8896;DHT22;4484;48.928;10.066;2023-06-26T03:21:57;14.10;99.90
8896;DHT22;4484;48.928;10.066;2023-06-26T03:24:24;14.10;99.90
8896;DHT22;4484;48.928;10.066;2023-06-26T03:26:51;14.20;99.90
8896;DHT22;4484;48.928;10.066;2023-06-26T03:29:18;14.10;99.90
8896;DHT22;4484;48.928;10.066;2023-06-26T03:31:45;14.20;99.90
8896;DHT22;4484;48.928;10.066;2023-06-26T03:34:13;14.10;99.90
8896;DHT22;4484;48.928;10.066;2023-06-26T03:36:39;14.10;99.90
8896;DHT22;4484;48.928;10.066;2023-06-26T03:39:06;14.10;99.90
8896;DHT22;4484;48.928;10.066;2023-06-26T03:41:33;14.20;99.90
8896;DHT22;4484;48.928;10.066;2023-06-26T03:44:00;14.20;99.90
8896;DHT22;4484;48.928;10.066;2023-06-26T03:46:35;14.10;99.90
8896;DHT22;4484;48.928;10.066;2023-06-26T03:49:02;14.20;99.90
8896;DHT22;4484;48.928;10.066;2023-06-26T03:51:29;14.10;99.90
8896;DHT22;4484;48.928;10.066;2023-06-26T03:53:56;14.20;99.90
8896;DHT22;4484;48.928;10.066;2023-06-26T03:56:23;14.20;99.90
8896;DHT22;4484;48.928;10.066;2023-06-26T03:58:50;14.20;99.90
8896;DHT22;4484;48.928;10.066;2023-06-26T04:01:17;14.20;99.90
8896;DHT22;4484;48.928;10.066;2023-06-26T04:03:44;14.20;99.90
8896;DHT22;4484;48.928;10.066;2023-06-26T04:06:11;14.30;99.90
8896;DHT22;4484;48.928;10.066;2023-06-26T04:08:38;14.40;99.90
8896;DHT22;4484;48.928;10.066;2023-06-26T04:11:05;14.40;99.90
8896;DHT22;4484;48.928;10.066;2023-06-26T04:13:32;14.50;99.90
8896;DHT22;4484;48.928;10.066;2023-06-26T04:15:59;14.60;99.90
8896;DHT22;4484;48.928;10.066;2023-06-26T04:18:26;14.70;99.90
8896;DHT22;4484;48.928;10.066;2023-06-26T04:21:07;14.90;99.90
8896;DHT22;4484;48.928;10.066;2023-06-26T04:23:35;15.10;99.90
8896;DHT22;4484;48.928;10.066;2023-06-26T04:26:02;15.30;99.90
8896;DHT22;4484;48.928;10.066;2023-06-26T04:28:31;15.50;99.90
8896;DHT22;4484;48.928;10.066;2023-06-26T04:30:59;15.50;99.90
8896;DHT22;4484;48.928;10.066;2023-06-26T04:33:27;15.60;99.90
8896;DHT22;4484;48.928;10.066;2023-06-26T04:35:54;15.70;99.90
8896;DHT22;4484;48.928;10.066;2023-06-26T04:38:21;15.70;99.90
8896;DHT22;4484;48.928;10.066;2023-06-26T04:40:48;15.80;99.90
8896;DHT22;4484;48.928;10.066;2023-06-26T04:43:15;15.80;99.90
8896;DHT22;4484;48.928;10.066;2023-06-26T04:45:43;15.90;99.90
8896;DHT22;4484;48.928;10.066;2023-06-26T04:48:10;16.00;99.90
8896;DHT22;4484;48.928;10.066;2023-06-26T04:50:37;16.00;99.90
8896;DHT22;4484;48.928;10.066;2023-06-26T04:53:04;16.10;99.90
8896;DHT22;4484;48.928;10.066;2023-06-26T04:55:31;16.30;99.90
8896;DHT22;4484;48.928;10.066;2023-06-26T04:57:58;16.40;99.90
8896;DHT22;4484;48.928;10.066;2023-06-26T05:00:25;16.60;99.90
8896;DHT22;4484;48.928;10.066;2023-06-26T05:02:53;16.80;99.90
8896;DHT22;4484;48.928;10.066;2023-06-26T05:05:27;16.90;99.90
8896;DHT22;4484;48.928;10.066;2023-06-26T05:07:55;17.20;99.90
8896;DHT22;4484;48.928;10.066;2023-06-26T05:10:23;17.40;99.90
8896;DHT22;4484;48.928;10.066;2023-06-26T05:12:50;17.60;99.90
8896;DHT22;4484;48.928;10.066;2023-06-26T05:15:17;17.80;99.90
8896;DHT22;4484;48.928;10.066;2023-06-26T05:17:43;17.90;99.90
8896;DHT22;4484;48.928;10.066;2023-06-26T05:20:12;18.00;99.90
8896;DHT22;4484;48.928;10.066;2023-06-26T05:22:41;18.20;99.90
8896;DHT22;4484;48.928;10.066;2023-06-26T05:25:09;18.30;99.90
8896;DHT22;4484;48.928;10.066;2023-06-26T05:27:37;18.40;99.90
8896;DHT22;4484;48.928;10.066;2023-06-26T05:30:04;18.50;99.90
8896;DHT22;4484;48.928;10.066;2023-06-26T05:32:34;18.70;99.90
8896;DHT22;4484;48.928;10.066;2023-06-26T05:35:03;18.90;99.90
8896;DHT22;4484;48.928;10.066;2023-06-26T05:37:31;19.10;99.90
8896;DHT22;4484;48.928;10.066;2023-06-26T05:40:00;19.20;99.90
8896;DHT22;4484;48.928;10.066;2023-06-26T05:42:28;19.30;99.90
8896;DHT22;4484;48.928;10.066;2023-06-26T05:44:55;19.50;99.90
8896;DHT22;4484;48.928;10.066;2023-06-26T05:47:22;19.60;99.90
8896;DHT22;4484;48.928;10.066;2023-06-26T05:49:50;19.80;99.90
8896;DHT22;4484;48.928;10.066;2023-06-26T05:52:17;20.00;99.90
8896;DHT22;4484;48.928;10.066;2023-06-26T05:54:44;20.10;99.90
8896;DHT22;4484;48.928;10.066;2023-06-26T05:57:13;20.30;99.90
8896;DHT22;4484;48.928;10.066;2023-06-26T05:59:40;20.50;99.80
8896;DHT22;4484;48.928;10.066;2023-06-26T06:02:09;20.60;99.90
8896;DHT22;4484;48.928;10.066;2023-06-26T06:04:36;20.80;99.70
8896;DHT22;4484;48.928;10.066;2023-06-26T06:07:04;21.10;99.80
8896;DHT22;4484;48.928;10.066;2023-06-26T06:09:32;21.40;98.30
8896;DHT22;4484;48.928;10.066;2023-06-26T06:11:59;21.60;97.70
8896;DHT22;4484;48.928;10.066;2023-06-26T06:14:27;21.80;97.00
8896;DHT22;4484;48.928;10.066;2023-06-26T06:16:54;22.00;95.90
8896;DHT22;4484;48.928;10.066;2023-06-26T06:19:21;22.20;95.50
8896;DHT22;4484;48.928;10.066;2023-06-26T06:21:48;22.50;95.20
8896;DHT22;4484;48.928;10.066;2023-06-26T06:24:15;22.70;94.80
8896;DHT22;4484;48.928;10.066;2023-06-26T06:26:42;22.90;94.70
8896;DHT22;4484;48.928;10.066;2023-06-26T06:29:09;23.20;93.40
8896;DHT22;4484;48.928;10.066;2023-06-26T06:31:36;23.40;93.30
8896;DHT22;4484;48.928;10.066;2023-06-26T06:34:03;23.60;92.40
8896;DHT22;4484;48.928;10.066;2023-06-26T06:36:30;23.80;92.50
8896;DHT22;4484;48.928;10.066;2023-06-26T06:38:57;24.10;91.70
8896;DHT22;4484;48.928;10.066;2023-06-26T06:41:24;24.20;92.10
8896;DHT22;4484;48.928;10.066;2023-06-26T06:43:51;24.40;91.30
8896;DHT22;4484;48.928;10.066;2023-06-26T06:46:19;24.60;91.30
8896;DHT22;4484;48.928;10.066;2023-06-26T06:48:46;24.80;90.30
8896;DHT22;4484;48.928;10.066;2023-06-26T06:51:13;25.00;89.50
8896;DHT22;4484;48.928;10.066;2023-06-26T06:53:40;25.10;89.40
8896;DHT22;4484;48.928;10.066;2023-06-26T06:56:07;25.40;89.00
8896;DHT22;4484;48.928;10.066;2023-06-26T06:58:34;25.60;87.80
8896;DHT22;4484;48.928;10.066;2023-06-26T07:01:02;25.70;87.40
8896;DHT22;4484;48.928;10.066;2023-06-26T07:03:31;25.90;87.00
8896;DHT22;4484;48.928;10.066;2023-06-26T07:05:58;26.10;86.10
8896;DHT22;4484;48.928;10.066;2023-06-26T07:08:25;26.30;85.60
8896;DHT22;4484;48.928;10.066;2023-06-26T07:10:52;26.50;84.70
8896;DHT22;4484;48.928;10.066;2023-06-26T07:13:19;26.60;85.20
8896;DHT22;4484;48.928;10.066;2023-06-26T07:15:46;26.90;84.80
8896;DHT22;4484;48.928;10.066;2023-06-26T07:18:14;27.30;85.20
8896;DHT22;4484;48.928;10.066;2023-06-26T07:20:41;27.80;83.10
8896;DHT22;4484;48.928;10.066;2023-06-26T07:23:08;28.10;81.50
8896;DHT22;4484;48.928;10.066;2023-06-26T07:25:36;28.70;80.30
8896;DHT22;4484;48.928;10.066;2023-06-26T07:28:03;29.10;78.80
8896;DHT22;4484;48.928;10.066;2023-06-26T07:30:30;29.50;75.80
8896;DHT22;4484;48.928;10.066;2023-06-26T07:32:56;29.80;75.90
8896;DHT22;4484;48.928;10.066;2023-06-26T07:35:23;30.10;74.40
8896;DHT22;4484;48.928;10.066;2023-06-26T07:37:51;30.50;74.60
8896;DHT22;4484;48.928;10.066;2023-06-26T07:40:18;30.80;70.60
8896;DHT22;4484;48.928;10.066;2023-06-26T07:42:45;30.90;68.40
8896;DHT22;4484;48.928;10.066;2023-06-26T07:45:13;30.90;69.50
8896;DHT22;4484;48.928;10.066;2023-06-26T07:47:40;31.10;67.60
8896;DHT22;4484;48.928;10.066;2023-06-26T07:50:07;31.30;65.00
8896;DHT22;4484;48.928;10.066;2023-06-26T07:52:35;31.30;65.50
8896;DHT22;4484;48.928;10.066;2023-06-26T07:55:02;31.40;66.10
8896;DHT22;4484;48.928;10.066;2023-06-26T07:57:30;31.60;63.50
8896;DHT22;4484;48.928;10.066;2023-06-26T07:59:58;31.70;61.50
8896;DHT22;4484;48.928;10.066;2023-06-26T08:02:25;31.50;63.00
8896;DHT22;4484;48.928;10.066;2023-06-26T08:04:52;31.60;61.90
8896;DHT22;4484;48.928;10.066;2023-06-26T08:07:20;31.50;61.50
8896;DHT22;4484;48.928;10.066;2023-06-26T08:09:47;31.60;62.80
8896;DHT22;4484;48.928;10.066;2023-06-26T08:12:14;31.90;61.80
8896;DHT22;4484;48.928;10.066;2023-06-26T08:14:40;32.40;63.10
8896;DHT22;4484;48.928;10.066;2023-06-26T08:17:07;33.00;62.30
8896;DHT22;4484;48.928;10.066;2023-06-26T08:19:34;33.50;60.50
8896;DHT22;4484;48.928;10.066;2023-06-26T08:22:01;33.90;58.60
8896;DHT22;4484;48.928;10.066;2023-06-26T08:24:29;34.10;57.00
8896;DHT22;4484;48.928;10.066;2023-06-26T08:26:56;34.30;56.40
8896;DHT22;4484;48.928;10.066;2023-06-26T08:29:22;34.50;57.00
8896;DHT22;4484;48.928;10.066;2023-06-26T08:31:49;34.60;55.60
8896;DHT22;4484;48.928;10.066;2023-06-26T08:34:16;34.50;55.10
8896;DHT22;4484;48.928;10.066;2023-06-26T08:36:43;34.70;54.70
8896;DHT22;4484;48.928;10.066;2023-06-26T08:39:12;34.80;54.80
8896;DHT22;4484;48.928;10.066;2023-06-26T08:41:39;35.10;55.00
8896;DHT22;4484;48.928;10.066;2023-06-26T08:44:06;35.30;54.00
8896;DHT22;4484;48.928;10.066;2023-06-26T08:46:33;35.70;54.90
8896;DHT22;4484;48.928;10.066;2023-06-26T08:49:04;35.90;53.40
8896;DHT22;4484;48.928;10.066;2023-06-26T08:51:35;36.00;53.10
8896;DHT22;4484;48.928;10.066;2023-06-26T08:54:08;36.20;52.80
8896;DHT22;4484;48.928;10.066;2023-06-26T08:56:39;36.40;53.50
8896;DHT22;4484;48.928;10.066;2023-06-26T08:59:07;36.70;53.10
8896;DHT22;4484;48.928;10.066;2023-06-26T09:01:37;36.90;51.90
8896;DHT22;4484;48.928;10.066;2023-06-26T09:04:04;37.10;51.90
8896;DHT22;4484;48.928;10.066;2023-06-26T09:06:32;37.40;52.00
8896;DHT22;4484;48.928;10.066;2023-06-26T09:08:59;37.80;52.00
8896;DHT22;4484;48.928;10.066;2023-06-26T09:11:26;38.00;50.00
8896;DHT22;4484;48.928;10.066;2023-06-26T09:13:53;38.30;51.20
8896;DHT22;4484;48.928;10.066;2023-06-26T09:16:25;38.30;50.00
8896;DHT22;4484;48.928;10.066;2023-06-26T09:18:56;38.40;49.60
8896;DHT22;4484;48.928;10.066;2023-06-26T09:21:23;38.60;49.40
8896;DHT22;4484;48.928;10.066;2023-06-26T09:23:52;38.90;49.80
8896;DHT22;4484;48.928;10.066;2023-06-26T09:26:21;38.90;47.50
8896;DHT22;4484;48.928;10.066;2023-06-26T09:28:49;39.00;47.90
8896;DHT22;4484;48.928;10.066;2023-06-26T09:31:17;39.00;47.80
8896;DHT22;4484;48.928;10.066;2023-06-26T09:34:04;38.80;46.30
8896;DHT22;4484;48.928;10.066;2023-06-26T09:36:33;38.60;48.10
8896;DHT22;4484;48.928;10.066;2023-06-26T09:39:06;38.70;48.00
8896;DHT22;4484;48.928;10.066;2023-06-26T09:41:35;38.70;46.40
8896;DHT22;4484;48.928;10.066;2023-06-26T09:44:03;38.80;47.70
8896;DHT22;4484;48.928;10.066;2023-06-26T09:46:31;38.60;46.10
8896;DHT22;4484;48.928;10.066;2023-06-26T09:49:06;38.40;47.40
8896;DHT22;4484;48.928;10.066;2023-06-26T09:51:34;38.20;46.60
8896;DHT22;4484;48.928;10.066;2023-06-26T09:54:03;38.10;47.30
8896;DHT22;4484;48.928;10.066;2023-06-26T09:56:31;38.10;46.90
8896;DHT22;4484;48.928;10.066;2023-06-26T09:59:00;38.20;47.00
8896;DHT22;4484;48.928;10.066;2023-06-26T10:01:31;38.30;46.60
8896;DHT22;4484;48.928;10.066;2023-06-26T10:03:58;38.40;45.70
8896;DHT22;4484;48.928;10.066;2023-06-26T10:06:36;38.00;45.00
8896;DHT22;4484;48.928;10.066;2023-06-26T10:09:04;37.90;46.40
8896;DHT22;4484;48.928;10.066;2023-06-26T10:11:43;37.90;47.60
8896;DHT22;4484;48.928;10.066;2023-06-26T10:14:13;37.90;45.90
8896;DHT22;4484;48.928;10.066;2023-06-26T10:16:44;38.10;47.80
8896;DHT22;4484;48.928;10.066;2023-06-26T10:19:14;38.50;47.50
8896;DHT22;4484;48.928;10.066;2023-06-26T10:21:42;38.90;46.10
8896;DHT22;4484;48.928;10.066;2023-06-26T10:24:10;39.00;45.60
8896;DHT22;4484;48.928;10.066;2023-06-26T10:26:44;39.20;45.40
8896;DHT22;4484;48.928;10.066;2023-06-26T10:29:13;39.30;45.30
8896;DHT22;4484;48.928;10.066;2023-06-26T10:31:44;39.40;44.70
8896;DHT22;4484;48.928;10.066;2023-06-26T10:34:13;39.20;42.00
8896;DHT22;4484;48.928;10.066;2023-06-26T10:36:40;39.00;44.00
8896;DHT22;4484;48.928;10.066;2023-06-26T10:39:07;39.40;45.50
8896;DHT22;4484;48.928;10.066;2023-06-26T10:41:39;39.70;43.90
8896;DHT22;4484;48.928;10.066;2023-06-26T10:44:40;39.80;44.50
8896;DHT22;4484;48.928;10.066;2023-06-26T10:47:09;40.10;43.00
8896;DHT22;4484;48.928;10.066;2023-06-26T10:49:37;39.90;43.10
8896;DHT22;4484;48.928;10.066;2023-06-26T10:52:06;39.80;43.50
8896;DHT22;4484;48.928;10.066;2023-06-26T10:54:34;39.60;43.50
8896;DHT22;4484;48.928;10.066;2023-06-26T10:57:02;39.60;44.20
8896;DHT22;4484;48.928;10.066;2023-06-26T10:59:31;39.60;43.70
8896;DHT22;4484;48.928;10.066;2023-06-26T11:02:04;39.30;43.30
8896;DHT22;4484;48.928;10.066;2023-06-26T11:04:40;38.90;43.90
8896;DHT22;4484;48.928;10.066;2023-06-26T11:07:23;39.00;44.40
8896;DHT22;4484;48.928;10.066;2023-06-26T11:10:02;39.00;43.80
8896;DHT22;4484;48.928;10.066;2023-06-26T11:15:14;38.50;45.00
8896;DHT22;4484;48.928;10.066;2023-06-26T11:17:42;38.20;46.00
8896;DHT22;4484;48.928;10.066;2023-06-26T11:20:14;38.30;45.50
8896;DHT22;4484;48.928;10.066;2023-06-26T11:22:43;38.60;45.00
8896;DHT22;4484;48.928;10.066;2023-06-26T11:25:10;38.50;45.00
8896;DHT22;4484;48.928;10.066;2023-06-26T11:30:05;39.30;47.20
8896;DHT22;4484;48.928;10.066;2023-06-26T11:32:33;39.80;46.10
8896;DHT22;4484;48.928;10.066;2023-06-26T11:35:00;40.20;46.30
8896;DHT22;4484;48.928;10.066;2023-06-26T11:37:27;40.50;46.00
8896;DHT22;4484;48.928;10.066;2023-06-26T11:39:54;40.50;44.70
8896;DHT22;4484;48.928;10.066;2023-06-26T11:42:21;40.60;45.30
8896;DHT22;4484;48.928;10.066;2023-06-26T11:44:48;40.80;45.60
8896;DHT22;4484;48.928;10.066;2023-06-26T11:47:16;41.00;46.00
8896;DHT22;4484;48.928;10.066;2023-06-26T11:49:48;41.20;44.70
8896;DHT22;4484;48.928;10.066;2023-06-26T11:52:15;41.40;46.00
8896;DHT22;4484;48.928;10.066;2023-06-26T11:54:43;41.30;45.00
8896;DHT22;4484;48.928;10.066;2023-06-26T11:57:14;41.30;45.40
8896;DHT22;4484;48.928;10.066;2023-06-26T11:59:41;41.10;45.10
8896;DHT22;4484;48.928;10.066;2023-06-26T12:02:10;41.10;45.90
8896;DHT22;4484;48.928;10.066;2023-06-26T12:04:38;40.50;45.30
8896;DHT22;4484;48.928;10.066;2023-06-26T12:07:08;39.80;46.10
8896;DHT22;4484;48.928;10.066;2023-06-26T12:09:44;39.30;46.00
8896;DHT22;4484;48.928;10.066;2023-06-26T12:12:15;39.00;46.20
8896;DHT22;4484;48.928;10.066;2023-06-26T12:14:43;38.90;45.20
8896;DHT22;4484;48.928;10.066;2023-06-26T12:17:12;38.80;45.10
8896;DHT22;4484;48.928;10.066;2023-06-26T12:19:45;38.80;45.60
8896;DHT22;4484;48.928;10.066;2023-06-26T12:22:15;38.50;46.40
8896;DHT22;4484;48.928;10.066;2023-06-26T12:24:42;38.00;46.50
8896;DHT22;4484;48.928;10.066;2023-06-26T12:27:11;37.30;47.70
8896;DHT22;4484;48.928;10.066;2023-06-26T12:29:40;36.70;48.30
8896;DHT22;4484;48.928;10.066;2023-06-26T12:32:09;36.80;48.10
8896;DHT22;4484;48.928;10.066;2023-06-26T12:34:38;37.10;48.40
8896;DHT22;4484;48.928;10.066;2023-06-26T12:37:07;37.10;47.40
8896;DHT22;4484;48.928;10.066;2023-06-26T12:39:53;37.30;47.40
8896;DHT22;4484;48.928;10.066;2023-06-26T12:42:26;37.60;48.40
8896;DHT22;4484;48.928;10.066;2023-06-26T12:44:54;37.40;46.60
8896;DHT22;4484;48.928;10.066;2023-06-26T12:47:28;37.30;47.00
8896;DHT22;4484;48.928;10.066;2023-06-26T12:49:57;36.70;48.10
8896;DHT22;4484;48.928;10.066;2023-06-26T12:52:24;36.60;49.40
8896;DHT22;4484;48.928;10.066;2023-06-26T12:54:53;36.30;49.60
8896;DHT22;4484;48.928;10.066;2023-06-26T12:57:20;36.50;50.70
8896;DHT22;4484;48.928;10.066;2023-06-26T12:59:47;36.70;49.40
8896;DHT22;4484;48.928;10.066;2023-06-26T13:02:14;36.80;49.50
8896;DHT22;4484;48.928;10.066;2023-06-26T13:04:41;36.80;49.50
8896;DHT22;4484;48.928;10.066;2023-06-26T13:07:08;36.60;50.20
8896;DHT22;4484;48.928;10.066;2023-06-26T13:09:36;36.20;51.30
8896;DHT22;4484;48.928;10.066;2023-06-26T13:12:05;36.30;50.60
8896;DHT22;4484;48.928;10.066;2023-06-26T13:14:32;36.10;50.40
8896;DHT22;4484;48.928;10.066;2023-06-26T13:17:00;36.00;50.80
8896;DHT22;4484;48.928;10.066;2023-06-26T13:19:28;36.00;52.20
8896;DHT22;4484;48.928;10.066;2023-06-26T13:21:55;36.20;52.30
8896;DHT22;4484;48.928;10.066;2023-06-26T13:24:23;36.20;51.90
8896;DHT22;4484;48.928;10.066;2023-06-26T13:26:50;36.30;50.60
8896;DHT22;4484;48.928;10.066;2023-06-26T13:29:17;36.20;52.00
8896;DHT22;4484;48.928;10.066;2023-06-26T13:31:44;36.40;53.90
8896;DHT22;4484;48.928;10.066;2023-06-26T13:34:22;36.10;53.40
8896;DHT22;4484;48.928;10.066;2023-06-26T13:36:50;36.00;54.20
8896;DHT22;4484;48.928;10.066;2023-06-26T13:39:17;36.00;55.10
8896;DHT22;4484;48.928;10.066;2023-06-26T13:41:44;36.10;55.10
8896;DHT22;4484;48.928;10.066;2023-06-26T13:44:11;36.10;53.10
8896;DHT22;4484;48.928;10.066;2023-06-26T13:46:57;35.80;53.50
8896;DHT22;4484;48.928;10.066;2023-06-26T13:49:24;35.30;55.00
8896;DHT22;4484;48.928;10.066;2023-06-26T13:51:51;35.10;54.00
8896;DHT22;4484;48.928;10.066;2023-06-26T13:54:18;34.70;53.30
8896;DHT22;4484;48.928;10.066;2023-06-26T13:56:45;34.30;54.30
8896;DHT22;4484;48.928;10.066;2023-06-26T13:59:12;33.70;55.80
8896;DHT22;4484;48.928;10.066;2023-06-26T14:01:39;33.70;57.00
8896;DHT22;4484;48.928;10.066;2023-06-26T14:04:09;33.50;57.30
8896;DHT22;4484;48.928;10.066;2023-06-26T14:06:36;33.30;57.50
8896;DHT22;4484;48.928;10.066;2023-06-26T14:09:03;33.20;58.40
8896;DHT22;4484;48.928;10.066;2023-06-26T14:11:30;33.00;58.00
8896;DHT22;4484;48.928;10.066;2023-06-26T14:13:59;32.70;58.50
8896;DHT22;4484;48.928;10.066;2023-06-26T14:16:26;32.60;59.50
8896;DHT22;4484;48.928;10.066;2023-06-26T14:18:55;32.70;59.20
8896;DHT22;4484;48.928;10.066;2023-06-26T14:21:23;32.80;59.90
8896;DHT22;4484;48.928;10.066;2023-06-26T14:23:50;33.00;59.80
8896;DHT22;4484;48.928;10.066;2023-06-26T14:26:17;33.10;59.40
8896;DHT22;4484;48.928;10.066;2023-06-26T14:28:43;33.00;59.20
8896;DHT22;4484;48.928;10.066;2023-06-26T14:31:11;32.50;59.60
8896;DHT22;4484;48.928;10.066;2023-06-26T14:33:39;32.10;60.80
8896;DHT22;4484;48.928;10.066;2023-06-26T14:36:06;32.20;61.40
8896;DHT22;4484;48.928;10.066;2023-06-26T14:38:33;32.10;62.60
8896;DHT22;4484;48.928;10.066;2023-06-26T14:41:00;32.40;62.10
8896;DHT22;4484;48.928;10.066;2023-06-26T14:43:27;32.70;60.50
8896;DHT22;4484;48.928;10.066;2023-06-26T14:45:55;32.90;59.70
8896;DHT22;4484;48.928;10.066;2023-06-26T14:48:22;32.60;57.70
8896;DHT22;4484;48.928;10.066;2023-06-26T14:50:49;32.40;58.30
8896;DHT22;4484;48.928;10.066;2023-06-26T14:53:17;32.10;58.50
8896;DHT22;4484;48.928;10.066;2023-06-26T14:55:44;31.80;57.90
8896;DHT22;4484;48.928;10.066;2023-06-26T14:58:11;31.70;58.40
8896;DHT22;4484;48.928;10.066;2023-06-26T15:00:38;31.60;57.90
8896;DHT22;4484;48.928;10.066;2023-06-26T15:03:05;31.50;57.00
8896;DHT22;4484;48.928;10.066;2023-06-26T15:05:32;31.50;56.80
8896;DHT22;4484;48.928;10.066;2023-06-26T15:07:59;31.40;54.90
8896;DHT22;4484;48.928;10.066;2023-06-26T15:10:26;31.50;55.50
8896;DHT22;4484;48.928;10.066;2023-06-26T15:12:55;31.50;53.60
8896;DHT22;4484;48.928;10.066;2023-06-26T15:15:22;31.40;53.40
8896;DHT22;4484;48.928;10.066;2023-06-26T15:17:49;31.40;53.30
8896;DHT22;4484;48.928;10.066;2023-06-26T15:20:16;31.30;53.70
8896;DHT22;4484;48.928;10.066;2023-06-26T15:22:43;31.20;54.10
8896;DHT22;4484;48.928;10.066;2023-06-26T15:25:10;31.30;55.10
8896;DHT22;4484;48.928;10.066;2023-06-26T15:27:37;31.40;55.80
8896;DHT22;4484;48.928;10.066;2023-06-26T15:30:04;31.30;55.20
8896;DHT22;4484;48.928;10.066;2023-06-26T15:32:32;31.00;55.50
8896;DHT22;4484;48.928;10.066;2023-06-26T15:35:00;30.90;55.60
8896;DHT22;4484;48.928;10.066;2023-06-26T15:37:27;30.60;55.20
8896;DHT22;4484;48.928;10.066;2023-06-26T15:39:54;30.30;55.10
8896;DHT22;4484;48.928;10.066;2023-06-26T15:42:21;30.10;55.10
8896;DHT22;4484;48.928;10.066;2023-06-26T15:44:48;30.00;55.20
8896;DHT22;4484;48.928;10.066;2023-06-26T15:47:15;29.90;56.20
8896;DHT22;4484;48.928;10.066;2023-06-26T15:49:42;29.90;56.50
8896;DHT22;4484;48.928;10.066;2023-06-26T15:52:09;29.80;57.50
8896;DHT22;4484;48.928;10.066;2023-06-26T15:54:36;29.80;56.50
8896;DHT22;4484;48.928;10.066;2023-06-26T15:57:03;29.70;55.80
8896;DHT22;4484;48.928;10.066;2023-06-26T15:59:30;29.60;56.10
8896;DHT22;4484;48.928;10.066;2023-06-26T16:01:57;29.60;57.10